createdAt,value
2022-08-28T00:00:16.896Z,12.48
2022-08-28T00:02:43.917Z,12.40
2022-08-28T00:05:11.728Z,13.77
2022-08-28T00:07:38.874Z,15.48
2022-08-28T00:10:07.797Z,14.23
2022-08-28T00:12:36.523Z,15.57
2022-08-28T00:15:12.857Z,13.48
2022-08-28T00:17:40.803Z,19.40
2022-08-28T00:20:10.325Z,11.25
2022-08-28T00:22:38.415Z,12.43
2022-08-28T00:25:10.103Z,14.82
2022-08-28T00:27:52.593Z,13.73
2022-08-28T00:30:38.118Z,15.57
2022-08-28T00:33:08.702Z,11.35
2022-08-28T00:35:40.183Z,12.05
2022-08-28T00:38:10.524Z,14.40
2022-08-28T00:40:39.243Z,9.88
2022-08-28T00:43:08.670Z,12.80
2022-08-28T00:45:39.563Z,10.57
2022-08-28T00:48:07.148Z,12.00
2022-08-28T00:51:00.294Z,14.70
2022-08-28T00:53:32.773Z,13.77
2022-08-28T00:56:04.167Z,11.47
2022-08-28T00:58:40.148Z,10.02
2022-08-28T01:01:07.342Z,14.00
2022-08-28T01:03:34.304Z,12.10
2022-08-28T01:06:01.444Z,13.80
2022-08-28T01:08:31.139Z,10.07
2022-08-28T01:10:59.338Z,12.45
2022-08-28T01:13:27.532Z,11.85
2022-08-28T01:15:55.343Z,19.65
2022-08-28T01:18:22.735Z,10.90
2022-08-28T01:21:20.048Z,8.30
2022-08-28T01:24:02.301Z,21.45
2022-08-28T01:26:29.933Z,12.52
2022-08-28T01:29:00.639Z,12.18
2022-08-28T01:31:30.041Z,14.30
2022-08-28T01:33:59.268Z,11.27
2022-08-28T01:36:26.707Z,12.48
2022-08-28T01:39:01.565Z,9.50
2022-08-28T01:41:29.640Z,11.73
2022-08-28T01:43:56.782Z,8.88
2022-08-28T01:46:23.791Z,8.20
2022-08-28T01:48:50.743Z,16.98
2022-08-28T01:51:21.479Z,11.13
2022-08-28T01:53:50.858Z,13.68
2022-08-28T01:56:18.616Z,12.30
2022-08-28T01:58:48.171Z,12.97
2022-08-28T02:01:21.412Z,14.32
2022-08-28T02:03:49.388Z,12.20
2022-08-28T02:06:17.084Z,11.82
2022-08-28T02:08:44.029Z,14.75
2022-08-28T02:11:12.281Z,12.37
2022-08-28T02:13:41.546Z,19.45
2022-08-28T02:16:10.579Z,13.60
2022-08-28T02:18:38.125Z,10.70
2022-08-28T02:21:06.308Z,12.13
2022-08-28T02:23:33.445Z,17.00
2022-08-28T02:26:00.629Z,13.85
2022-08-28T02:28:27.539Z,7.90
2022-08-28T02:30:56.986Z,8.23
2022-08-28T02:33:23.870Z,14.95
2022-08-28T02:35:51.064Z,15.33
2022-08-28T02:38:18.881Z,8.43
2022-08-28T02:40:45.846Z,10.25
2022-08-28T02:43:12.635Z,14.40
2022-08-28T02:45:41.299Z,11.63
2022-08-28T02:48:11.980Z,10.60
2022-08-28T02:50:43.958Z,10.85
2022-08-28T02:53:14.531Z,12.93
2022-08-28T02:55:41.572Z,11.77
2022-08-28T02:58:09.700Z,14.15
2022-08-28T03:00:36.825Z,10.40
2022-08-28T03:03:03.759Z,15.27
2022-08-28T03:05:30.910Z,10.57
2022-08-28T03:07:57.850Z,12.25
2022-08-28T03:10:25.152Z,13.00
2022-08-28T03:12:52.802Z,15.90
2022-08-28T03:15:20.417Z,9.68
2022-08-28T03:17:47.995Z,13.48
2022-08-28T03:20:15.980Z,12.70
2022-08-28T03:23:01.826Z,9.25
2022-08-28T03:25:28.795Z,15.10
2022-08-28T03:27:56.428Z,7.45
2022-08-28T03:30:24.347Z,12.07
2022-08-28T03:32:51.477Z,10.25
2022-08-28T03:35:18.549Z,9.88
2022-08-28T03:37:45.914Z,7.47
2022-08-28T03:40:14.557Z,20.05
2022-08-28T03:42:41.659Z,11.00
2022-08-28T03:45:10.806Z,7.13
2022-08-28T03:47:42.527Z,12.48
2022-08-28T03:50:11.515Z,9.93
2022-08-28T03:52:39.763Z,15.65
2022-08-28T03:55:08.834Z,17.63
2022-08-28T03:57:36.326Z,12.20
2022-08-28T04:00:07.886Z,22.88
2022-08-28T04:02:39.815Z,8.47
2022-08-28T04:05:07.498Z,7.80
2022-08-28T04:07:35.760Z,13.13
2022-08-28T04:10:03.697Z,12.85
2022-08-28T04:12:30.576Z,13.32
2022-08-28T04:15:02.644Z,10.63
2022-08-28T04:17:29.986Z,13.65
2022-08-28T04:19:57.460Z,7.85
2022-08-28T04:22:24.303Z,10.98
2022-08-28T04:24:51.539Z,11.77
2022-08-28T04:27:18.618Z,11.17
2022-08-28T04:29:45.423Z,13.32
2022-08-28T04:32:12.355Z,9.77
2022-08-28T04:34:39.480Z,11.23
2022-08-28T04:37:06.715Z,12.65
2022-08-28T04:39:34.062Z,10.77
2022-08-28T04:42:01.114Z,10.35
2022-08-28T04:44:28.206Z,10.05
2022-08-28T04:46:55.085Z,11.93
2022-08-28T04:49:26.026Z,15.02
2022-08-28T04:51:53.694Z,9.20
2022-08-28T04:54:21.161Z,14.77
2022-08-28T04:56:48.397Z,14.02
2022-08-28T04:59:16.367Z,13.35
2022-08-28T05:01:43.328Z,13.38
2022-08-28T05:04:11.815Z,9.20
2022-08-28T05:06:43.454Z,12.65
2022-08-28T05:09:10.239Z,9.25
2022-08-28T05:11:37.162Z,15.38
2022-08-28T05:14:06.341Z,13.10
2022-08-28T05:16:40.265Z,11.37
2022-08-28T05:19:07.102Z,9.65
2022-08-28T05:21:33.944Z,15.13
2022-08-28T05:24:00.942Z,13.32
2022-08-28T05:26:29.925Z,11.40
2022-08-28T05:28:58.034Z,10.83
2022-08-28T05:31:25.697Z,13.77
2022-08-28T05:33:53.567Z,8.60
2022-08-28T05:36:25.766Z,16.23
2022-08-28T05:39:00.089Z,12.90
2022-08-28T05:41:32.248Z,13.07
2022-08-28T05:44:01.265Z,13.02
2022-08-28T05:46:28.692Z,11.85
2022-08-28T05:48:57.460Z,10.38
2022-08-28T05:51:26.300Z,12.32
2022-08-28T05:53:54.363Z,10.90
2022-08-28T05:56:26.887Z,16.38
2022-08-28T05:58:54.235Z,11.50
2022-08-28T06:01:24.324Z,16.13
2022-08-28T06:03:55.190Z,11.75
2022-08-28T06:06:24.746Z,18.17
2022-08-28T06:08:58.625Z,16.55
2022-08-28T06:11:29.589Z,12.55
2022-08-28T06:14:02.913Z,17.05
2022-08-28T06:16:31.419Z,15.13
2022-08-28T06:18:58.825Z,11.73
2022-08-28T06:21:26.069Z,12.77
2022-08-28T06:23:53.243Z,14.73
2022-08-28T06:26:20.324Z,8.93
2022-08-28T06:28:47.181Z,11.88
2022-08-28T06:31:23.620Z,12.27
2022-08-28T06:33:57.059Z,10.55
2022-08-28T06:36:27.303Z,10.90
2022-08-28T06:38:55.611Z,10.88
2022-08-28T06:41:22.486Z,9.30
2022-08-28T06:43:51.025Z,10.40
2022-08-28T06:46:18.108Z,12.30
2022-08-28T06:48:44.997Z,17.05
2022-08-28T06:51:13.084Z,11.07
2022-08-28T06:53:41.579Z,14.32
2022-08-28T06:56:13.726Z,10.00
2022-08-28T06:58:55.494Z,14.93
2022-08-28T07:01:29.558Z,10.63
2022-08-28T07:04:00.341Z,8.68
2022-08-28T07:06:31.922Z,10.43
2022-08-28T07:08:59.099Z,14.53
2022-08-28T07:11:29.465Z,7.55
2022-08-28T07:13:57.409Z,7.25
2022-08-28T07:16:27.332Z,8.73
2022-08-28T07:18:58.467Z,9.85
2022-08-28T07:21:26.435Z,7.70
2022-08-28T07:23:53.672Z,11.07
2022-08-28T07:26:23.940Z,11.63
2022-08-28T07:28:52.731Z,10.70
2022-08-28T07:31:37.921Z,10.18
2022-08-28T07:34:07.709Z,12.43
2022-08-28T07:36:35.765Z,9.13
2022-08-28T07:39:05.363Z,7.40
2022-08-28T07:41:34.189Z,6.40
2022-08-28T07:44:20.519Z,8.23
2022-08-28T07:46:47.706Z,5.33
2022-08-28T07:49:17.462Z,5.63
2022-08-28T07:51:46.810Z,11.15
2022-08-28T07:54:17.681Z,10.00
2022-08-28T07:56:49.145Z,10.10
2022-08-28T07:59:17.530Z,7.67
2022-08-28T08:01:48.606Z,10.07
2022-08-28T08:04:16.418Z,13.10
2022-08-28T08:06:43.998Z,10.50
2022-08-28T08:09:14.192Z,9.45
2022-08-28T08:11:41.146Z,8.17
2022-08-28T08:14:08.415Z,6.85
2022-08-28T08:16:40.913Z,10.60
2022-08-28T08:19:11.940Z,6.35
2022-08-28T08:21:39.497Z,9.38
2022-08-28T08:24:07.162Z,7.50
2022-08-28T08:26:34.696Z,7.10
2022-08-28T08:29:01.814Z,5.25
2022-08-28T08:31:32.464Z,8.38
2022-08-28T08:34:02.140Z,12.63
2022-08-28T08:36:30.813Z,14.20
2022-08-28T08:39:00.317Z,5.97
2022-08-28T08:41:39.604Z,8.75
2022-08-28T08:44:33.825Z,6.20
2022-08-28T08:47:15.903Z,13.65
2022-08-28T08:49:59.518Z,7.97
2022-08-28T08:52:56.238Z,4.90
2022-08-28T08:55:31.401Z,9.40
2022-08-28T08:58:12.705Z,5.43
2022-08-28T09:01:14.526Z,12.38
2022-08-28T09:03:53.839Z,9.20
2022-08-28T09:06:46.823Z,6.38
2022-08-28T09:09:31.481Z,7.20
2022-08-28T09:12:01.762Z,6.97
2022-08-28T09:14:49.700Z,8.65
2022-08-28T09:17:19.546Z,6.67
2022-08-28T09:19:46.878Z,8.68
2022-08-28T09:22:14.944Z,10.23
2022-08-28T09:24:42.522Z,6.68
2022-08-28T09:27:23.705Z,5.90
2022-08-28T09:30:07.609Z,8.60
2022-08-28T09:32:44.651Z,4.53
2022-08-28T09:35:32.766Z,7.25
2022-08-28T09:38:19.028Z,6.45
2022-08-28T09:41:04.833Z,4.85
2022-08-28T09:43:33.572Z,7.67
2022-08-28T09:46:18.363Z,8.40
2022-08-28T09:48:48.298Z,4.40
2022-08-28T09:51:21.242Z,6.93
2022-08-28T09:53:57.271Z,4.20
2022-08-28T09:56:33.591Z,7.97
2022-08-28T09:59:05.808Z,2.80
2022-08-28T10:01:43.380Z,5.97
2022-08-28T10:04:46.638Z,4.65
2022-08-28T10:07:13.500Z,8.43
2022-08-28T10:10:22.343Z,4.70
2022-08-28T10:13:04.235Z,6.28
2022-08-28T10:15:53.160Z,4.88
2022-08-28T10:18:47.970Z,6.07
2022-08-28T10:21:19.044Z,5.45
2022-08-28T10:23:58.583Z,7.30
2022-08-28T10:26:50.654Z,6.60
2022-08-28T10:29:43.005Z,5.63
2022-08-28T10:32:38.979Z,5.07
2022-08-28T10:35:13.839Z,8.23
2022-08-28T10:38:05.607Z,6.77
2022-08-28T10:40:40.397Z,6.47
2022-08-28T10:43:07.682Z,6.40
2022-08-28T10:45:35.442Z,8.98
2022-08-28T10:48:10.966Z,4.55
2022-08-28T10:50:45.736Z,10.33
2022-08-28T10:53:19.466Z,5.32
2022-08-28T10:55:54.021Z,2.78
2022-08-28T10:58:25.396Z,3.72
2022-08-28T11:01:01.279Z,4.30
2022-08-28T11:03:35.557Z,3.60
2022-08-28T11:06:30.536Z,5.00
2022-08-28T11:09:00.618Z,5.15
2022-08-28T11:11:43.626Z,5.05
2022-08-28T11:14:22.484Z,4.82
2022-08-28T11:16:50.140Z,3.63
2022-08-28T11:19:38.716Z,4.03
2022-08-28T11:22:21.507Z,3.90
2022-08-28T11:25:18.517Z,5.38
2022-08-28T11:28:24.317Z,6.78
2022-08-28T11:31:06.943Z,5.45
2022-08-28T11:33:47.767Z,3.27
2022-08-28T11:36:24.276Z,7.80
2022-08-28T11:38:54.057Z,5.15
2022-08-28T11:41:38.461Z,6.32
2022-08-28T11:44:12.623Z,2.78
2022-08-28T11:46:52.673Z,5.00
2022-08-28T11:49:32.166Z,9.57
2022-08-28T11:52:18.270Z,4.95
2022-08-28T11:54:57.186Z,4.15
2022-08-28T12:00:54.937Z,4.77
2022-08-28T12:03:26.355Z,8.30
2022-08-28T12:05:56.612Z,4.45
2022-08-28T12:09:05.787Z,3.35
2022-08-28T12:11:42.116Z,6.10
2022-08-28T12:14:41.016Z,4.00
2022-08-28T12:17:24.498Z,4.40
2022-08-28T12:20:09.079Z,3.35
2022-08-28T12:22:47.953Z,4.03
2022-08-28T12:25:26.685Z,3.47
2022-08-28T12:27:55.072Z,6.13
2022-08-28T12:30:30.842Z,6.73
2022-08-28T12:33:08.733Z,7.40
2022-08-28T12:35:38.661Z,9.07
2022-08-28T12:38:09.342Z,8.02
2022-08-28T12:40:53.346Z,2.95
2022-08-28T12:43:32.504Z,4.90
2022-08-28T12:46:28.858Z,3.60
2022-08-28T12:49:01.489Z,5.13
2022-08-28T12:51:34.840Z,5.78
2022-08-28T12:54:04.790Z,3.90
2022-08-28T12:56:37.736Z,2.83
2022-08-28T12:59:27.556Z,3.25
2022-08-28T13:02:01.691Z,6.15
2022-08-28T13:04:36.089Z,3.47
2022-08-28T13:07:23.368Z,5.05
2022-08-28T13:09:52.950Z,3.50
2022-08-28T13:12:44.112Z,4.00
2022-08-28T13:15:14.040Z,4.05
2022-08-28T13:17:53.341Z,6.20
2022-08-28T13:20:32.882Z,4.20
2022-08-28T13:23:01.105Z,3.93
2022-08-28T13:25:34.758Z,4.67
2022-08-28T13:28:05.391Z,4.68
2022-08-28T13:30:35.013Z,6.55
2022-08-28T13:33:21.859Z,3.17
2022-08-28T13:35:49.256Z,2.30
2022-08-28T13:38:19.070Z,2.90
2022-08-28T13:40:57.970Z,2.40
2022-08-28T13:43:29.633Z,4.65
2022-08-28T13:45:56.895Z,2.55
2022-08-28T13:48:28.180Z,4.38
2022-08-28T13:51:03.554Z,2.00
2022-08-28T13:53:32.131Z,12.13
2022-08-28T13:56:00.277Z,4.95
2022-08-28T13:58:28.334Z,2.55
2022-08-28T14:00:55.555Z,5.47
2022-08-28T14:03:38.646Z,4.10
2022-08-28T14:06:14.091Z,3.88
2022-08-28T14:08:41.935Z,2.63
2022-08-28T14:11:12.656Z,2.55
2022-08-28T14:13:40.754Z,2.78
2022-08-28T14:16:17.083Z,3.20
2022-08-28T14:18:46.708Z,2.85
2022-08-28T14:21:13.828Z,2.63
2022-08-28T14:23:40.798Z,2.78
2022-08-28T14:26:07.570Z,4.28
2022-08-28T14:28:34.409Z,2.00
2022-08-28T14:31:04.823Z,2.55
2022-08-28T14:33:32.400Z,3.40
2022-08-28T14:36:04.028Z,2.60
2022-08-28T14:38:31.603Z,4.18
2022-08-28T14:40:58.398Z,4.90
2022-08-28T14:43:25.174Z,3.43
2022-08-28T14:45:52.049Z,4.15
2022-08-28T14:48:19.467Z,3.25
2022-08-28T14:50:48.300Z,2.15
2022-08-28T14:53:17.060Z,4.63
2022-08-28T14:55:49.331Z,3.63
2022-08-28T14:58:18.744Z,3.20
2022-08-28T15:00:48.479Z,8.77
2022-08-28T15:03:16.028Z,5.53
2022-08-28T15:05:43.370Z,4.95
2022-08-28T15:08:13.044Z,3.27
2022-08-28T15:10:42.270Z,6.35
2022-08-28T15:13:10.519Z,2.97
2022-08-28T15:15:39.537Z,3.40
2022-08-28T15:18:07.533Z,2.35
2022-08-28T15:20:46.524Z,4.53
2022-08-28T15:23:15.156Z,3.37
2022-08-28T15:25:42.599Z,6.00
2022-08-28T15:28:10.575Z,4.28
2022-08-28T15:30:38.114Z,5.50
2022-08-28T15:33:05.517Z,3.65
2022-08-28T15:35:34.252Z,3.17
2022-08-28T15:38:01.083Z,4.05
2022-08-28T15:40:46.435Z,4.65
2022-08-28T15:43:13.544Z,4.00
2022-08-28T15:45:41.589Z,3.95
2022-08-28T15:48:09.377Z,5.13
2022-08-28T15:50:36.418Z,4.60
2022-08-28T15:53:04.482Z,4.80
2022-08-28T15:55:34.121Z,3.15
2022-08-28T15:58:05.315Z,4.70
2022-08-28T16:00:41.516Z,5.63
2022-08-28T16:03:08.313Z,4.13
2022-08-28T16:05:39.621Z,3.45
2022-08-28T16:08:08.200Z,5.03
2022-08-28T16:10:35.199Z,3.58
2022-08-28T16:13:04.408Z,6.05
2022-08-28T16:15:31.255Z,4.57
2022-08-28T16:17:58.441Z,3.47
2022-08-28T16:20:25.315Z,4.25
2022-08-28T16:22:52.947Z,3.33
2022-08-28T16:25:20.200Z,4.75
2022-08-28T16:27:47.031Z,3.08
2022-08-28T16:30:15.742Z,3.43
2022-08-28T16:32:46.807Z,5.80
2022-08-28T16:35:15.654Z,3.83
2022-08-28T16:37:43.166Z,2.50
2022-08-28T16:40:11.055Z,8.80
2022-08-28T16:42:38.585Z,6.63
2022-08-28T16:45:06.373Z,16.20
2022-08-28T16:47:35.210Z,5.57
2022-08-28T16:50:08.352Z,3.47
2022-08-28T16:52:36.093Z,3.55
2022-08-28T16:55:07.760Z,5.03
2022-08-28T16:57:35.084Z,5.77
2022-08-28T17:00:02.329Z,5.93
2022-08-28T17:02:31.190Z,6.03
2022-08-28T17:05:01.919Z,6.15
2022-08-28T17:07:29.253Z,4.38
2022-08-28T17:09:56.699Z,2.37
2022-08-28T17:12:23.677Z,2.00
2022-08-28T17:14:51.589Z,3.78
2022-08-28T17:17:18.424Z,5.57
2022-08-28T17:19:45.367Z,3.92
2022-08-28T17:22:31.923Z,9.20
2022-08-28T17:25:07.432Z,3.17
2022-08-28T17:27:35.063Z,3.83
2022-08-28T17:30:04.744Z,5.97
2022-08-28T17:32:32.268Z,9.18
2022-08-28T17:35:00.015Z,5.57
2022-08-28T17:37:27.226Z,3.93
2022-08-28T17:39:54.693Z,4.20
2022-08-28T17:42:21.540Z,3.60
2022-08-28T17:44:48.734Z,4.13
2022-08-28T17:47:15.570Z,5.22
2022-08-28T17:49:42.449Z,4.10
2022-08-28T17:52:09.552Z,4.80
2022-08-28T17:54:36.512Z,3.22
2022-08-28T17:57:03.455Z,4.63
2022-08-28T17:59:30.547Z,4.70
2022-08-28T18:01:57.978Z,4.38
2022-08-28T18:04:27.543Z,5.30
2022-08-28T18:06:54.834Z,3.58
2022-08-28T18:09:22.691Z,7.10
2022-08-28T18:11:49.933Z,5.45
2022-08-28T18:14:17.200Z,3.78
2022-08-28T18:16:44.323Z,3.23
2022-08-28T18:19:11.802Z,4.60
2022-08-28T18:21:40.145Z,2.85
2022-08-28T18:24:07.752Z,4.68
2022-08-28T18:26:34.727Z,6.20
2022-08-28T18:29:01.789Z,5.17
2022-08-28T18:31:28.863Z,3.13
2022-08-28T18:33:55.993Z,3.63
2022-08-28T18:36:23.298Z,3.83
2022-08-28T18:38:51.148Z,4.63
2022-08-28T18:41:20.048Z,6.03
2022-08-28T18:43:48.090Z,3.17
2022-08-28T18:46:15.761Z,4.78
2022-08-28T18:48:43.252Z,3.50
2022-08-28T18:51:12.421Z,4.15
2022-08-28T18:53:43.429Z,4.67
2022-08-28T18:56:12.162Z,7.18
2022-08-28T18:58:40.562Z,5.03
2022-08-28T19:01:09.249Z,7.70
2022-08-28T19:03:36.812Z,3.65
2022-08-28T19:06:07.342Z,5.20
2022-08-28T19:08:36.721Z,3.15
2022-08-28T19:11:07.713Z,7.82
2022-08-28T19:13:34.907Z,4.45
2022-08-28T19:16:02.034Z,4.32
2022-08-28T19:18:31.596Z,3.67
2022-08-28T19:21:11.022Z,6.78
2022-08-28T19:23:53.860Z,4.80
2022-08-28T19:26:24.958Z,3.28
2022-08-28T19:28:52.144Z,5.10
2022-08-28T19:31:19.493Z,4.20
2022-08-28T19:33:47.986Z,6.95
2022-08-28T19:36:15.150Z,7.70
2022-08-28T19:38:42.313Z,9.32
2022-08-28T19:41:11.399Z,5.13
2022-08-28T19:43:43.160Z,6.07
2022-08-28T19:46:18.437Z,4.70
2022-08-28T19:48:49.047Z,4.65
2022-08-28T19:51:17.662Z,7.35
2022-08-28T19:53:57.233Z,7.78
2022-08-28T19:56:27.543Z,3.70
2022-08-28T19:58:58.934Z,4.05
2022-08-28T20:01:31.526Z,6.38
2022-08-28T20:03:59.942Z,5.03
2022-08-28T20:06:28.271Z,4.43
2022-08-28T20:08:55.751Z,4.07
2022-08-28T20:11:30.039Z,5.75
2022-08-28T20:14:04.321Z,7.25
2022-08-28T20:16:38.048Z,7.47
2022-08-28T20:19:07.802Z,7.47
2022-08-28T20:21:37.824Z,8.27
2022-08-28T20:24:07.832Z,4.03
2022-08-28T20:26:35.071Z,5.90
2022-08-28T20:29:01.998Z,7.30
2022-08-28T20:31:29.062Z,3.53
2022-08-28T20:33:56.153Z,5.87
2022-08-28T20:36:23.321Z,4.03
2022-08-28T20:38:50.271Z,3.28
2022-08-28T20:41:19.448Z,7.50
2022-08-28T20:43:51.358Z,4.88
2022-08-28T20:46:18.471Z,4.50
2022-08-28T20:48:45.678Z,5.38
2022-08-28T20:51:12.877Z,4.55
2022-08-28T20:53:39.867Z,8.20
2022-08-28T20:56:09.383Z,4.95
2022-08-28T20:58:36.931Z,4.33
2022-08-28T21:01:04.338Z,6.88
2022-08-28T21:03:31.457Z,6.20
2022-08-28T21:05:58.326Z,3.15
2022-08-28T21:08:25.850Z,8.32
2022-08-28T21:10:52.813Z,6.43
2022-08-28T21:13:20.136Z,4.03
2022-08-28T21:15:48.033Z,4.38
2022-08-28T21:18:15.945Z,5.25
2022-08-28T21:20:43.452Z,7.22
2022-08-28T21:23:13.000Z,6.53
2022-08-28T21:25:41.212Z,4.13
2022-08-28T21:28:08.442Z,5.05
2022-08-28T21:30:35.516Z,4.35
2022-08-28T21:33:02.442Z,5.13
2022-08-28T21:35:29.406Z,10.13
2022-08-28T21:37:56.380Z,7.47
2022-08-28T21:40:23.425Z,5.40
2022-08-28T21:42:50.735Z,7.60
2022-08-28T21:45:18.288Z,6.57
2022-08-28T21:47:45.183Z,6.83
2022-08-28T21:50:12.079Z,4.60
2022-08-28T21:52:39.896Z,9.50
2022-08-28T21:55:11.122Z,9.15
2022-08-28T21:57:38.099Z,4.47
2022-08-28T22:00:23.728Z,4.00
2022-08-28T22:02:50.671Z,5.28
2022-08-28T22:05:18.194Z,6.80
2022-08-28T22:07:45.281Z,7.20
2022-08-28T22:10:12.520Z,6.53
2022-08-28T22:12:39.354Z,11.27
2022-08-28T22:15:06.504Z,5.93
2022-08-28T22:17:33.451Z,9.38
2022-08-28T22:20:00.269Z,6.47
2022-08-28T22:22:45.665Z,7.35
2022-08-28T22:25:12.685Z,7.83
2022-08-28T22:27:39.646Z,9.13
2022-08-28T22:30:07.109Z,5.03
2022-08-28T22:32:33.967Z,4.60
2022-08-28T22:35:00.809Z,6.25
2022-08-28T22:37:27.833Z,3.67
2022-08-28T22:39:54.897Z,8.32
2022-08-28T22:42:22.118Z,9.30
2022-08-28T22:44:49.004Z,7.00
2022-08-28T22:47:15.805Z,5.65
2022-08-28T22:49:45.965Z,6.10
2022-08-28T22:52:13.051Z,6.80
2022-08-28T22:54:39.823Z,6.80
2022-08-28T22:57:06.860Z,8.43
2022-08-28T22:59:34.557Z,6.10
2022-08-28T23:02:03.759Z,10.10
2022-08-28T23:04:31.211Z,5.05
2022-08-28T23:06:58.207Z,5.85
2022-08-28T23:09:25.051Z,7.82
2022-08-28T23:11:51.901Z,8.55
2022-08-28T23:14:19.287Z,5.63
2022-08-28T23:16:46.193Z,11.05
2022-08-28T23:19:13.388Z,7.88
2022-08-28T23:21:43.987Z,6.38
2022-08-28T23:24:13.031Z,7.20
2022-08-28T23:26:40.422Z,6.23
2022-08-28T23:29:07.500Z,10.38
2022-08-28T23:31:34.438Z,5.72
2022-08-28T23:34:01.945Z,7.97
2022-08-28T23:36:28.975Z,4.15
2022-08-28T23:38:55.861Z,4.73
2022-08-28T23:41:22.868Z,7.13
2022-08-28T23:43:49.881Z,4.35
2022-08-28T23:46:18.303Z,4.30
2022-08-28T23:48:45.964Z,4.82
2022-08-28T23:51:17.084Z,5.93
2022-08-28T23:53:44.442Z,7.18
2022-08-28T23:56:11.570Z,9.88
2022-08-28T23:58:43.329Z,5.78
